Time;durP1;ratioP1;P1;durP2;ratioP2;P2;SDS_P1;SDS_P2;PMS_P1;PMS_P2;Temp;Humidity;BMP_temperature;BMP_pressure;BME280_temperature;BME280_humidity;BME280_pressure;Samples;Min_cycle;Max_cycle;Signal;HPM_P1;HPM_P2
2022/04/02 00:00:47;;;;;;;17.85;13.27;;;;;;;;;;5093230;28;20036;-44
2022/04/02 00:03:13;;;;;;;22.05;15.02;;;;;;;;;;5093175;28;20043;-42
2022/04/02 00:05:39;;;;;;;18.90;14.10;;;;;;;;;;5093130;28;20077;-44
2022/04/02 00:08:05;;;;;;;28.15;19.40;;;;;;;;;;5093343;28;20043;-45
2022/04/02 00:10:31;;;;;;;21.92;16.08;;;;;;;;;;5088894;28;20032;-43
2022/04/02 00:12:58;;;;;;;25.48;18.63;;;;;;;;;;5092962;28;20518;-42
2022/04/02 00:15:24;;;;;;;20.90;14.90;;;;;;;;;;5093065;28;20024;-43
2022/04/02 00:17:50;;;;;;;39.90;25.05;;;;;;;;;;5092947;28;20055;-43
2022/04/02 00:20:17;;;;;;;24.25;16.70;;;;;;;;;;5093040;28;20075;-43
2022/04/02 00:25:33;;;;;;;30.05;19.63;;;;;;;;;;5093679;28;20031;-42
2022/04/02 00:27:59;;;;;;;16.70;13.43;;;;;;;;;;5093392;28;20028;-41
2022/04/02 00:30:25;;;;;;;36.85;24.23;;;;;;;;;;5093239;28;20032;-46
2022/04/02 00:32:51;;;;;;;29.48;19.48;;;;;;;;;;5093490;28;20024;-41
2022/04/02 00:35:17;;;;;;;21.85;14.75;;;;;;;;;;5093439;28;20056;-45
2022/04/02 00:37:43;;;;;;;21.80;14.52;;;;;;;;;;5093173;28;20495;-42
2022/04/02 00:40:10;;;;;;;31.45;20.15;;;;;;;;;;5093394;28;20024;-44
2022/04/02 00:42:36;;;;;;;54.97;32.67;;;;;;;;;;5093389;28;20019;-45
2022/04/02 00:45:02;;;;;;;28.58;18.70;;;;;;;;;;5094224;28;20028;-41
2022/04/02 00:47:28;;;;;;;44.50;28.38;;;;;;;;;;5097272;28;20040;-44
2022/04/02 00:49:57;;;;;;;34.38;23.95;;;;;;;;;;5105907;28;20051;-44
2022/04/02 00:52:25;;;;;;;29.45;19.10;;;;;;;;;;5113559;28;20043;-43
2022/04/02 00:54:52;;;;;;;32.05;21.45;;;;;;;;;;5116388;28;20035;-40
2022/04/02 00:57:18;;;;;;;29.77;19.88;;;;;;;;;;5116994;28;20084;-46
2022/04/02 00:59:44;;;;;;;33.05;22.13;;;;;;;;;;5115563;28;20023;-46
2022/04/02 01:02:10;;;;;;;29.17;19.90;;;;;;;;;;5111542;28;20038;-49
2022/04/02 01:04:36;;;;;;;24.98;16.67;;;;;;;;;;5108593;28;20051;-44
2022/04/02 01:07:03;;;;;;;36.25;22.48;;;;;;;;;;5097187;28;20052;-41
2022/04/02 01:09:30;;;;;;;37.47;24.13;;;;;;;;;;5097379;28;20020;-43
2022/04/02 01:11:56;;;;;;;23.95;14.98;;;;;;;;;;5096861;28;20488;-49
2022/04/02 01:14:27;;;;;;;23.25;16.88;;;;;;;;;;5097012;28;20027;-43
2022/04/02 01:16:53;;;;;;;17.67;13.27;;;;;;;;;;5096797;28;20032;-44
2022/04/02 01:19:21;;;;;;;26.35;17.77;;;;;;;;;;5096874;28;20081;-42
2022/04/02 01:21:48;;;;;;;26.15;18.20;;;;;;;;;;5096795;28;20023;-44
2022/04/02 01:24:14;;;;;;;30.50;19.67;;;;;;;;;;5096817;28;20058;-51
2022/04/02 01:26:41;;;;;;;24.77;17.42;;;;;;;;;;5096673;28;20104;-51
2022/04/02 01:29:07;;;;;;;32.40;21.58;;;;;;;;;;5096629;28;20028;-48
2022/04/02 01:31:33;;;;;;;33.15;21.42;;;;;;;;;;5096601;28;20028;-44
2022/04/02 01:34:00;;;;;;;36.38;23.08;;;;;;;;;;5096670;28;20100;-42
2022/04/02 01:36:27;;;;;;;22.58;16.73;;;;;;;;;;5096686;28;20098;-50
2022/04/02 01:38:53;;;;;;;27.80;18.05;;;;;;;;;;5096630;28;20042;-50
2022/04/02 01:41:19;;;;;;;27.23;18.88;;;;;;;;;;5096624;28;20020;-44
2022/04/02 01:43:46;;;;;;;23.48;16.90;;;;;;;;;;5096344;28;20036;-49
2022/04/02 01:46:15;;;;;;;31.20;21.27;;;;;;;;;;5096125;28;20020;-43
2022/04/02 01:48:42;;;;;;;29.83;19.10;;;;;;;;;;5096205;28;20023;-43
2022/04/02 01:51:08;;;;;;;21.90;15.68;;;;;;;;;;5114874;28;20130;-43
2022/04/02 01:53:34;;;;;;;25.92;17.35;;;;;;;;;;5115717;28;20023;-40
2022/04/02 01:56:05;;;;;;;24.85;17.92;;;;;;;;;;5095746;28;20032;-43
2022/04/02 01:58:31;;;;;;;29.08;19.00;;;;;;;;;;5095760;28;20023;-44
2022/04/02 02:00:58;;;;;;;25.38;17.60;;;;;;;;;;5095493;28;20028;-41
2022/04/02 02:03:24;;;;;;;25.08;17.23;;;;;;;;;;5096075;28;20020;-43
2022/04/02 02:05:50;;;;;;;26.75;18.63;;;;;;;;;;5095834;28;20051;-44
2022/04/02 02:08:16;;;;;;;22.30;16.42;;;;;;;;;;5095873;28;20024;-46
2022/04/02 02:10:43;;;;;;;26.17;18.25;;;;;;;;;;5095736;28;20039;-41
2022/04/02 02:13:09;;;;;;;26.98;18.65;;;;;;;;;;5095593;28;20108;-43
2022/04/02 02:15:39;;;;;;;25.45;18.55;;;;;;;;;;5095539;28;20020;-43
2022/04/02 02:18:06;;;;;;;24.20;17.80;;;;;;;;;;5095031;28;20403;-43
2022/04/02 02:20:32;;;;;;;28.92;19.85;;;;;;;;;;5095553;28;20032;-42
2022/04/02 02:22:58;;;;;;;29.38;19.67;;;;;;;;;;5095804;28;20031;-43
2022/04/02 02:25:26;;;;;;;26.63;19.40;;;;;;;;;;5095607;28;20031;-43
2022/04/02 02:27:52;;;;;;;28.92;19.60;;;;;;;;;;5095542;28;20058;-43
2022/04/02 02:30:18;;;;;;;23.65;16.63;;;;;;;;;;5095231;28;20039;-44
2022/04/02 02:32:45;;;;;;;23.40;17.05;;;;;;;;;;5095371;28;20047;-42
2022/04/02 02:38:10;;;;;;;32.05;20.52;;;;;;;;;;5095521;28;20059;-44
2022/04/02 02:40:37;;;;;;;29.48;20.20;;;;;;;;;;5095302;28;20028;-45
2022/04/02 02:43:04;;;;;;;30.80;20.75;;;;;;;;;;5095038;28;20467;-45
2022/04/02 02:45:32;;;;;;;27.42;19.52;;;;;;;;;;5095301;28;20380;-42
2022/04/02 02:47:59;;;;;;;27.45;19.10;;;;;;;;;;5095114;28;20042;-45
2022/04/02 02:50:26;;;;;;;30.33;19.17;;;;;;;;;;5103220;28;20086;-43
2022/04/02 02:52:52;;;;;;;29.75;20.60;;;;;;;;;;5115691;28;20099;-44
2022/04/02 02:55:20;;;;;;;27.60;20.17;;;;;;;;;;5115345;28;20032;-45
2022/04/02 02:57:47;;;;;;;31.08;20.85;;;;;;;;;;5115148;28;20051;-43
2022/04/02 03:00:14;;;;;;;29.55;20.15;;;;;;;;;;5115098;28;20084;-44
2022/04/02 03:02:41;;;;;;;34.95;22.67;;;;;;;;;;5115052;28;20155;-44
2022/04/02 03:05:11;;;;;;;36.55;23.02;;;;;;;;;;5096873;28;20019;-43
2022/04/02 03:07:48;;;;;;;29.48;20.33;;;;;;;;;;5114410;28;20051;-43
2022/04/02 03:10:17;;;;;;;31.85;20.45;;;;;;;;;;5114851;28;20498;-44
2022/04/02 03:12:44;;;;;;;33.80;21.85;;;;;;;;;;5114986;28;20167;-44
2022/04/02 03:15:11;;;;;;;37.58;24.30;;;;;;;;;;5115012;28;20376;-44
2022/04/02 03:17:37;;;;;;;39.65;25.58;;;;;;;;;;5115065;28;20038;-44
2022/04/02 03:20:05;;;;;;;36.60;23.92;;;;;;;;;;5114757;28;20560;-45
2022/04/02 03:22:39;;;;;;;32.88;22.83;;;;;;;;;;5114801;28;20061;-45
2022/04/02 03:25:07;;;;;;;31.75;21.33;;;;;;;;;;5114476;28;20038;-44
2022/04/02 03:27:33;;;;;;;32.63;21.58;;;;;;;;;;5114800;28;20015;-45
2022/04/02 03:29:59;;;;;;;33.88;22.65;;;;;;;;;;5114605;28;20020;-42
2022/04/02 03:32:25;;;;;;;36.63;22.75;;;;;;;;;;5114566;28;20037;-43
2022/04/02 03:34:51;;;;;;;36.28;24.00;;;;;;;;;;5114632;28;20024;-45
2022/04/02 03:37:19;;;;;;;38.28;22.92;;;;;;;;;;5114564;28;20023;-46
2022/04/02 03:39:45;;;;;;;37.58;23.52;;;;;;;;;;5114496;28;20106;-46
2022/04/02 03:42:14;;;;;;;34.67;22.02;;;;;;;;;;5114610;28;20031;-46
2022/04/02 03:44:42;;;;;;;34.88;22.80;;;;;;;;;;5114291;28;20623;-46
2022/04/02 03:47:10;;;;;;;38.10;23.38;;;;;;;;;;5114373;28;20031;-42
2022/04/02 03:49:41;;;;;;;39.53;23.17;;;;;;;;;;5114149;28;20114;-47
2022/04/02 03:52:08;;;;;;;35.03;22.60;;;;;;;;;;5114138;28;20063;-47
2022/04/02 03:54:35;;;;;;;36.53;22.75;;;;;;;;;;5114300;28;20059;-44
2022/04/02 03:57:02;;;;;;;36.88;23.30;;;;;;;;;;5114085;28;20073;-43
2022/04/02 03:59:28;;;;;;;39.45;23.05;;;;;;;;;;5113842;28;20691;-44
2022/04/02 04:01:54;;;;;;;38.38;23.90;;;;;;;;;;5114149;28;20019;-45
2022/04/02 04:04:25;;;;;;;60.35;34.58;;;;;;;;;;5113923;28;20028;-48
2022/04/02 04:06:51;;;;;;;72.00;41.20;;;;;;;;;;5114087;28;20114;-43
2022/04/02 04:09:18;;;;;;;48.33;29.05;;;;;;;;;;5114240;28;20030;-46
2022/04/02 04:11:44;;;;;;;41.78;25.20;;;;;;;;;;5114037;28;20039;-45
2022/04/02 04:14:10;;;;;;;39.78;23.90;;;;;;;;;;5113794;28;20022;-45
2022/04/02 04:16:36;;;;;;;36.95;23.05;;;;;;;;;;5114054;28;20355;-45
2022/04/02 04:19:03;;;;;;;35.05;21.85;;;;;;;;;;5113428;28;20024;-46
2022/04/02 04:21:29;;;;;;;42.47;24.15;;;;;;;;;;5113529;28;20023;-45
2022/04/02 04:23:55;;;;;;;40.38;23.85;;;;;;;;;;5113654;28;20439;-47
2022/04/02 04:26:22;;;;;;;36.40;22.63;;;;;;;;;;5113763;28;20023;-44
2022/04/02 04:28:48;;;;;;;40.95;23.25;;;;;;;;;;5114055;28;20149;-46
2022/04/02 04:31:17;;;;;;;40.80;23.92;;;;;;;;;;5113459;28;20039;-46
2022/04/02 04:33:44;;;;;;;40.63;25.02;;;;;;;;;;5113562;28;20027;-45
2022/04/02 04:36:10;;;;;;;46.33;25.25;;;;;;;;;;5113791;28;20027;-45
2022/04/02 04:38:37;;;;;;;45.50;25.95;;;;;;;;;;5113609;28;20020;-45
2022/04/02 04:41:05;;;;;;;39.40;24.33;;;;;;;;;;5113797;28;20345;-44
2022/04/02 04:43:32;;;;;;;40.83;23.52;;;;;;;;;;5113967;28;20020;-45
2022/04/02 04:45:58;;;;;;;40.13;24.92;;;;;;;;;;5113598;28;20024;-43
2022/04/02 04:48:24;;;;;;;44.95;26.45;;;;;;;;;;5113369;28;20030;-44
2022/04/02 04:50:53;;;;;;;42.25;24.92;;;;;;;;;;5113409;28;20131;-45
2022/04/02 04:53:19;;;;;;;49.88;28.88;;;;;;;;;;5113360;28;20162;-44
2022/04/02 04:55:45;;;;;;;60.22;33.83;;;;;;;;;;5113721;28;20047;-45
2022/04/02 04:58:11;;;;;;;45.97;27.02;;;;;;;;;;5113435;28;20027;-43
2022/04/02 05:00:37;;;;;;;44.95;27.35;;;;;;;;;;5113528;28;20038;-45
2022/04/02 05:03:04;;;;;;;47.42;28.15;;;;;;;;;;5113405;28;20062;-42
2022/04/02 05:05:32;;;;;;;47.03;28.08;;;;;;;;;;5113356;28;20514;-43
2022/04/02 05:07:59;;;;;;;45.70;26.52;;;;;;;;;;5113341;28;20081;-43
2022/04/02 05:10:28;;;;;;;43.55;26.17;;;;;;;;;;5113284;28;20384;-43
2022/04/02 05:12:54;;;;;;;44.25;25.17;;;;;;;;;;5113588;28;20388;-44
2022/04/02 05:15:21;;;;;;;42.35;25.60;;;;;;;;;;5113199;28;20490;-47
2022/04/02 05:17:47;;;;;;;43.38;26.05;;;;;;;;;;5113212;28;20036;-45
2022/04/02 05:20:17;;;;;;;40.67;25.65;;;;;;;;;;5113495;28;20031;-44
2022/04/02 05:22:44;;;;;;;49.03;26.80;;;;;;;;;;5113162;28;20027;-44
2022/04/02 05:25:10;;;;;;;44.85;25.48;;;;;;;;;;5113279;28;20051;-46
2022/04/02 05:27:37;;;;;;;44.17;26.17;;;;;;;;;;5113558;28;20027;-44
2022/04/02 05:30:04;;;;;;;42.13;24.55;;;;;;;;;;5113166;28;20024;-46
2022/04/02 05:32:35;;;;;;;41.13;23.55;;;;;;;;;;5116157;28;20168;-45
2022/04/02 05:35:01;;;;;;;36.43;22.90;;;;;;;;;;5116904;28;20030;-45
2022/04/02 05:37:29;;;;;;;38.88;22.80;;;;;;;;;;5116761;28;20037;-45
2022/04/02 05:39:56;;;;;;;38.25;22.98;;;;;;;;;;5116723;28;20024;-46
2022/04/02 05:42:22;;;;;;;37.28;23.58;;;;;;;;;;5116702;28;20080;-45
2022/04/02 05:44:51;;;;;;;34.28;21.42;;;;;;;;;;5116645;28;20038;-46
2022/04/02 05:47:17;;;;;;;36.00;21.55;;;;;;;;;;5116451;28;20031;-46
2022/04/02 05:49:46;;;;;;;35.85;21.88;;;;;;;;;;5116391;28;20048;-43
2022/04/02 05:52:12;;;;;;;35.10;21.17;;;;;;;;;;5116361;28;20080;-46
2022/04/02 05:54:38;;;;;;;38.42;21.85;;;;;;;;;;5116637;28;20023;-45
2022/04/02 05:57:05;;;;;;;39.35;22.60;;;;;;;;;;5116940;28;20405;-45
2022/04/02 05:59:35;;;;;;;32.13;20.42;;;;;;;;;;5116583;28;20016;-44
2022/04/02 06:02:02;;;;;;;32.93;20.37;;;;;;;;;;5116085;28;20023;-47
2022/04/02 06:04:28;;;;;;;33.08;20.52;;;;;;;;;;5116254;28;20459;-45
2022/04/02 06:06:54;;;;;;;38.95;20.48;;;;;;;;;;5116026;28;20386;-45
2022/04/02 06:09:20;;;;;;;32.60;20.15;;;;;;;;;;5116513;28;20039;-46
2022/04/02 06:11:49;;;;;;;32.40;20.65;;;;;;;;;;5116132;28;20118;-47
2022/04/02 06:14:15;;;;;;;37.03;21.88;;;;;;;;;;5116149;28;20035;-43
2022/04/02 06:16:48;;;;;;;34.15;20.90;;;;;;;;;;5115999;28;20038;-45
2022/04/02 06:19:21;;;;;;;34.25;20.75;;;;;;;;;;5115900;28;20429;-43
2022/04/02 06:21:47;;;;;;;33.42;19.80;;;;;;;;;;5116168;28;20024;-45
2022/04/02 06:24:13;;;;;;;31.80;20.63;;;;;;;;;;5116031;28;20044;-45
2022/04/02 06:26:41;;;;;;;33.78;20.80;;;;;;;;;;5097367;28;20554;-44
2022/04/02 06:29:07;;;;;;;30.55;19.92;;;;;;;;;;5115659;28;20031;-45
2022/04/02 06:31:36;;;;;;;41.60;25.70;;;;;;;;;;5115560;28;20074;-46
2022/04/02 06:34:02;;;;;;;44.50;27.25;;;;;;;;;;5115573;28;20494;-41
2022/04/02 06:36:29;;;;;;;41.22;23.00;;;;;;;;;;5115654;28;20019;-42
2022/04/02 06:38:57;;;;;;;47.92;27.10;;;;;;;;;;5115989;28;20073;-41
2022/04/02 06:41:24;;;;;;;37.70;23.55;;;;;;;;;;5115711;28;20433;-44
2022/04/02 06:43:50;;;;;;;37.53;22.75;;;;;;;;;;5108533;28;20027;-47
2022/04/02 06:46:16;;;;;;;42.58;24.42;;;;;;;;;;5109253;28;20017;-45
2022/04/02 06:48:42;;;;;;;38.72;23.08;;;;;;;;;;5108930;28;20049;-44
2022/04/02 06:51:08;;;;;;;30.08;19.58;;;;;;;;;;5113926;28;20044;-44
2022/04/02 06:53:37;;;;;;;38.08;22.58;;;;;;;;;;5113906;28;20030;-48
2022/04/02 06:56:03;;;;;;;33.30;20.40;;;;;;;;;;5113818;28;20011;-44
2022/04/02 06:58:35;;;;;;;31.55;19.00;;;;;;;;;;5113393;28;20027;-48
2022/04/02 07:01:01;;;;;;;30.88;19.33;;;;;;;;;;5114015;28;20499;-47
2022/04/02 07:03:27;;;;;;;31.20;19.92;;;;;;;;;;5113830;28;20027;-46
2022/04/02 07:05:53;;;;;;;27.92;17.80;;;;;;;;;;5113989;28;20008;-46
2022/04/02 07:08:19;;;;;;;30.95;17.45;;;;;;;;;;5114123;28;20023;-43
2022/04/02 07:10:45;;;;;;;29.85;18.38;;;;;;;;;;5113754;28;20068;-43
2022/04/02 07:13:11;;;;;;;28.92;18.90;;;;;;;;;;5112219;28;20387;-45
2022/04/02 07:15:39;;;;;;;27.02;17.95;;;;;;;;;;5113391;28;20020;-42
2022/04/02 07:18:06;;;;;;;32.53;18.80;;;;;;;;;;5113437;28;20024;-43
2022/04/02 07:20:34;;;;;;;27.92;19.17;;;;;;;;;;5113444;28;20031;-43
2022/04/02 07:23:00;;;;;;;28.45;17.88;;;;;;;;;;5113333;28;20373;-41
2022/04/02 07:25:27;;;;;;;29.05;17.85;;;;;;;;;;5113128;28;20019;-45
2022/04/02 07:27:54;;;;;;;28.27;18.55;;;;;;;;;;5113415;28;20028;-43
2022/04/02 07:30:20;;;;;;;30.15;19.38;;;;;;;;;;5113103;28;20015;-44
2022/04/02 07:32:46;;;;;;;33.20;20.35;;;;;;;;;;5112979;28;20046;-43
2022/04/02 07:35:17;;;;;;;34.63;21.20;;;;;;;;;;5113724;28;20019;-44
2022/04/02 07:38:02;;;;;;;34.05;20.92;;;;;;;;;;5113829;28;20027;-45
2022/04/02 07:40:30;;;;;;;32.33;20.25;;;;;;;;;;5110661;28;20030;-45
2022/04/02 07:43:05;;;;;;;29.65;19.13;;;;;;;;;;5113591;28;20605;-42
2022/04/02 07:45:42;;;;;;;36.10;20.98;;;;;;;;;;5111327;28;20042;-42
2022/04/02 07:48:09;;;;;;;38.47;20.55;;;;;;;;;;5110923;28;20043;-43
2022/04/02 07:50:36;;;;;;;37.22;19.80;;;;;;;;;;5098955;28;20048;-42
2022/04/02 07:53:07;;;;;;;35.22;20.70;;;;;;;;;;5093114;28;20036;-44
2022/04/02 07:55:34;;;;;;;41.88;22.98;;;;;;;;;;5091164;28;20446;-42
2022/04/02 07:58:05;;;;;;;36.95;21.92;;;;;;;;;;5093168;28;20024;-41
2022/04/02 08:00:31;;;;;;;44.20;24.38;;;;;;;;;;5093091;28;20498;-43
2022/04/02 08:02:58;;;;;;;33.08;20.52;;;;;;;;;;5093086;28;20416;-43
2022/04/02 08:05:24;;;;;;;36.30;21.40;;;;;;;;;;5092899;28;20418;-43
2022/04/02 08:07:54;;;;;;;51.42;28.13;;;;;;;;;;5093080;28;20020;-46
2022/04/02 08:10:23;;;;;;;35.95;21.95;;;;;;;;;;5092947;28;20532;-47
2022/04/02 08:12:49;;;;;;;32.35;19.98;;;;;;;;;;5090055;28;20058;-46
2022/04/02 08:15:21;;;;;;;35.65;21.20;;;;;;;;;;5093000;28;20368;-47
2022/04/02 08:17:47;;;;;;;31.30;19.65;;;;;;;;;;5092659;28;20031;-47
2022/04/02 08:20:18;;;;;;;31.63;20.65;;;;;;;;;;5092924;28;20059;-45
2022/04/02 08:22:45;;;;;;;33.78;21.08;;;;;;;;;;5092634;28;20028;-42
2022/04/02 08:25:12;;;;;;;45.13;23.70;;;;;;;;;;5092920;28;20087;-44
2022/04/02 08:27:45;;;;;;;60.75;32.63;;;;;;;;;;5092854;28;20039;-45
2022/04/02 08:30:13;;;;;;;43.28;25.45;;;;;;;;;;5090585;28;20028;-46
2022/04/02 08:32:41;;;;;;;40.80;23.95;;;;;;;;;;5092778;28;20031;-44
2022/04/02 08:35:08;;;;;;;46.67;26.00;;;;;;;;;;5092714;28;20129;-43
2022/04/02 08:37:37;;;;;;;36.38;21.63;;;;;;;;;;5092844;28;20451;-46
2022/04/02 08:40:11;;;;;;;36.80;20.95;;;;;;;;;;5092590;28;20049;-46
2022/04/02 08:42:58;;;;;;;43.58;22.83;;;;;;;;;;5091467;28;20513;-45
2022/04/02 08:45:28;;;;;;;36.80;22.30;;;;;;;;;;5091918;28;20027;-45
2022/04/02 08:48:08;;;;;;;34.88;22.83;;;;;;;;;;5092539;28;20028;-45
2022/04/02 08:50:36;;;;;;;34.93;22.73;;;;;;;;;;5101248;28;20058;-45
2022/04/02 08:53:22;;;;;;;40.85;24.58;;;;;;;;;;5091279;28;20323;-45
2022/04/02 08:55:58;;;;;;;37.40;22.73;;;;;;;;;;5091041;28;20043;-44
2022/04/02 08:58:26;;;;;;;33.70;21.70;;;;;;;;;;5110839;28;20016;-44
2022/04/02 09:01:08;;;;;;;36.35;21.77;;;;;;;;;;5111798;28;20020;-44
2022/04/02 09:03:43;;;;;;;33.63;20.63;;;;;;;;;;5111022;28;20090;-47
2022/04/02 09:06:22;;;;;;;34.33;20.25;;;;;;;;;;5111890;28;20054;-46
2022/04/02 09:09:07;;;;;;;39.00;23.58;;;;;;;;;;5117272;28;20052;-41
2022/04/02 09:12:14;;;;;;;32.20;20.90;;;;;;;;;;5116643;28;20383;-46
2022/04/02 09:14:49;;;;;;;38.17;23.27;;;;;;;;;;5008093;28;20039;-40
2022/04/02 09:17:27;;;;;;;48.08;27.17;;;;;;;;;;5009215;28;20493;-48
2022/04/02 09:20:13;;;;;;;47.75;26.55;;;;;;;;;;5013774;28;20065;-49
2022/04/02 09:22:39;;;;;;;40.25;24.08;;;;;;;;;;5014396;28;20057;-46
2022/04/02 09:25:39;;;;;;;41.22;23.95;;;;;;;;;;5014658;28;20026;-44
2022/04/02 09:28:13;;;;;;;42.90;25.83;;;;;;;;;;5014697;28;20033;-44
2022/04/02 09:30:59;;;;;;;53.55;29.30;;;;;;;;;;5014534;28;20018;-47
2022/04/02 09:33:30;;;;;;;67.80;33.83;;;;;;;;;;5013914;28;20165;-46
2022/04/02 09:36:08;;;;;;;55.05;31.58;;;;;;;;;;5013134;28;20084;-47
2022/04/02 09:38:46;;;;;;;40.05;23.50;;;;;;;;;;5014149;28;20052;-45
2022/04/02 09:41:12;;;;;;;41.42;24.85;;;;;;;;;;5013679;28;20112;-43
2022/04/02 09:43:39;;;;;;;40.17;24.83;;;;;;;;;;5013541;28;20029;-46
2022/04/02 09:46:34;;;;;;;38.45;23.65;;;;;;;;;;5085245;28;20032;-44
2022/04/02 09:49:07;;;;;;;36.25;23.38;;;;;;;;;;5095810;28;20130;-47
2022/04/02 09:51:36;;;;;;;59.97;31.52;;;;;;;;;;5094083;28;20031;-43
2022/04/02 09:54:04;;;;;;;66.88;35.40;;;;;;;;;;5095730;28;20036;-44
2022/04/02 09:56:35;;;;;;;39.22;24.33;;;;;;;;;;5095790;28;20108;-48
2022/04/02 09:59:05;;;;;;;56.00;31.25;;;;;;;;;;5095774;28;20431;-43
2022/04/02 10:01:35;;;;;;;44.55;25.50;;;;;;;;;;5095231;28;20023;-42
2022/04/02 10:04:07;;;;;;;53.92;32.22;;;;;;;;;;5095353;28;20032;-46
2022/04/02 10:06:40;;;;;;;71.40;39.55;;;;;;;;;;5095287;28;20460;-44
2022/04/02 10:09:06;;;;;;;48.67;29.52;;;;;;;;;;5095491;28;20020;-42
2022/04/02 10:11:34;;;;;;;93.97;53.38;;;;;;;;;;5095328;28;20047;-43
2022/04/02 10:14:04;;;;;;;74.30;42.10;;;;;;;;;;5095063;28;20024;-43
2022/04/02 10:16:31;;;;;;;51.63;32.10;;;;;;;;;;5092803;28;20020;-44
2022/04/02 10:18:59;;;;;;;35.10;23.88;;;;;;;;;;5093729;28;20031;-40
2022/04/02 10:21:25;;;;;;;34.40;21.70;;;;;;;;;;5095234;28;20162;-43
2022/04/02 10:23:55;;;;;;;36.55;22.98;;;;;;;;;;5096316;28;20028;-44
2022/04/02 10:26:22;;;;;;;31.50;21.75;;;;;;;;;;5102160;28;20016;-44
2022/04/02 10:28:56;;;;;;;31.50;20.00;;;;;;;;;;5115091;28;20035;-42
2022/04/02 10:31:40;;;;;;;33.35;21.38;;;;;;;;;;5115002;28;20030;-43
2022/04/02 10:34:13;;;;;;;29.98;19.50;;;;;;;;;;5115529;28;20036;-43
2022/04/02 10:37:00;;;;;;;46.40;28.33;;;;;;;;;;5115370;28;20085;-44
2022/04/02 10:39:27;;;;;;;37.58;21.25;;;;;;;;;;5104772;28;20036;-45
2022/04/02 10:41:57;;;;;;;39.83;24.33;;;;;;;;;;5115406;28;20023;-44
2022/04/02 10:44:44;;;;;;;32.47;22.60;;;;;;;;;;5115475;28;20053;-43
2022/04/02 10:47:14;;;;;;;33.15;21.02;;;;;;;;;;5115123;28;20072;-44
2022/04/02 10:49:41;;;;;;;42.47;24.73;;;;;;;;;;5121953;27;20057;-45
2022/04/02 10:52:10;;;;;;;27.52;19.25;;;;;;;;;;5135934;27;20068;-43
2022/04/02 10:54:39;;;;;;;29.30;19.23;;;;;;;;;;5123007;27;20024;-47
2022/04/02 10:57:05;;;;;;;26.45;19.13;;;;;;;;;;5115113;28;20476;-45
2022/04/02 10:59:32;;;;;;;39.03;25.33;;;;;;;;;;5115021;28;20031;-45
2022/04/02 11:02:02;;;;;;;30.63;19.88;;;;;;;;;;5115008;28;20031;-45
2022/04/02 11:04:46;;;;;;;30.80;20.17;;;;;;;;;;5114731;28;20027;-45
2022/04/02 11:07:12;;;;;;;28.30;18.52;;;;;;;;;;5114924;28;20015;-44
2022/04/02 11:09:39;;;;;;;28.45;18.70;;;;;;;;;;5115132;28;20110;-49
2022/04/02 11:12:15;;;;;;;33.05;21.95;;;;;;;;;;5114770;28;20036;-47
2022/04/02 11:14:46;;;;;;;29.95;20.10;;;;;;;;;;5096255;28;20057;-44
2022/04/02 11:17:30;;;;;;;28.83;20.58;;;;;;;;;;5114814;28;20360;-43
2022/04/02 11:20:17;;;;;;;30.83;20.52;;;;;;;;;;5091825;28;20042;-43
2022/04/02 11:22:43;;;;;;;35.90;23.85;;;;;;;;;;5084092;28;20020;-43
2022/04/02 11:25:15;;;;;;;33.70;20.77;;;;;;;;;;5084560;28;20322;-43
2022/04/02 11:27:41;;;;;;;30.08;20.27;;;;;;;;;;5084650;28;20024;-44
2022/04/02 11:30:11;;;;;;;32.88;21.17;;;;;;;;;;5082784;28;20342;-42
2022/04/02 11:32:39;;;;;;;35.55;22.95;;;;;;;;;;5083652;27;20040;-45
2022/04/02 11:35:14;;;;;;;40.20;24.98;;;;;;;;;;5083281;28;20062;-44
2022/04/02 11:37:46;;;;;;;33.90;21.70;;;;;;;;;;5083258;28;20023;-44
2022/04/02 11:40:15;;;;;;;30.83;21.55;;;;;;;;;;5083897;27;20409;-43
2022/04/02 11:42:46;;;;;;;30.23;20.45;;;;;;;;;;5082811;27;20030;-44
2022/04/02 11:45:17;;;;;;;31.67;20.33;;;;;;;;;;5082339;28;20035;-44
2022/04/02 11:47:47;;;;;;;29.55;20.52;;;;;;;;;;5081644;28;20489;-44
2022/04/02 11:50:14;;;;;;;32.53;20.58;;;;;;;;;;5082301;28;20361;-42
2022/04/02 11:52:55;;;;;;;31.52;20.63;;;;;;;;;;5082384;28;20036;-44
2022/04/02 11:55:21;;;;;;;31.08;20.40;;;;;;;;;;5084814;28;20024;-46
2022/04/02 11:57:57;;;;;;;35.28;22.92;;;;;;;;;;5064344;28;20063;-43
2022/04/02 12:00:27;;;;;;;36.22;22.73;;;;;;;;;;5083617;28;20069;-42
2022/04/02 12:02:54;;;;;;;35.55;23.67;;;;;;;;;;5082573;28;20139;-43
2022/04/02 12:05:23;;;;;;;34.67;23.67;;;;;;;;;;5082166;28;20020;-43
2022/04/02 12:07:54;;;;;;;39.30;23.58;;;;;;;;;;5082716;28;20034;-42
2022/04/02 12:10:24;;;;;;;35.55;23.70;;;;;;;;;;5083792;28;20034;-43
2022/04/02 12:12:58;;;;;;;40.58;24.70;;;;;;;;;;5082621;27;20460;-44
2022/04/02 12:15:25;;;;;;;40.17;25.67;;;;;;;;;;5082296;28;20027;-43
2022/04/02 12:18:01;;;;;;;44.15;26.27;;;;;;;;;;5084601;28;20032;-42
2022/04/02 12:20:27;;;;;;;43.70;27.40;;;;;;;;;;5083261;28;20039;-42
2022/04/02 12:23:12;;;;;;;42.90;26.48;;;;;;;;;;5084577;28;20028;-43
2022/04/02 12:25:39;;;;;;;41.88;24.85;;;;;;;;;;5083983;28;20028;-43
2022/04/02 12:28:15;;;;;;;37.00;23.70;;;;;;;;;;5082208;28;20054;-42
2022/04/02 12:30:43;;;;;;;38.38;23.10;;;;;;;;;;5083152;28;20024;-43
2022/04/02 12:33:14;;;;;;;32.47;21.05;;;;;;;;;;5082340;28;20572;-46
2022/04/02 12:35:42;;;;;;;34.37;21.40;;;;;;;;;;5082529;28;20484;-42
2022/04/02 12:38:15;;;;;;;38.78;24.23;;;;;;;;;;5082136;28;20028;-43
2022/04/02 12:40:42;;;;;;;29.92;19.20;;;;;;;;;;5082638;28;20016;-44
2022/04/02 12:43:13;;;;;;;30.90;18.90;;;;;;;;;;5086934;28;20020;-44
2022/04/02 12:45:39;;;;;;;27.98;17.02;;;;;;;;;;5086631;28;20169;-43
2022/04/02 12:48:07;;;;;;;30.00;16.50;;;;;;;;;;5087720;27;20165;-42
2022/04/02 12:50:37;;;;;;;30.08;16.45;;;;;;;;;;5087903;27;20044;-44
2022/04/02 12:53:03;;;;;;;36.20;20.33;;;;;;;;;;5086676;27;20038;-42
2022/04/02 12:55:31;;;;;;;42.50;23.20;;;;;;;;;;5086700;27;20023;-43
2022/04/02 12:58:01;;;;;;;23.95;14.13;;;;;;;;;;5087557;27;20494;-43
2022/04/02 13:00:34;;;;;;;20.27;13.07;;;;;;;;;;5079115;28;20028;-41
2022/04/02 13:03:01;;;;;;;25.70;14.40;;;;;;;;;;5086858;27;20086;-42
2022/04/02 13:05:44;;;;;;;37.72;18.65;;;;;;;;;;5086638;27;20076;-43
2022/04/02 13:08:19;;;;;;;38.85;19.45;;;;;;;;;;5086612;27;20399;-42
2022/04/02 13:10:46;;;;;;;42.30;22.83;;;;;;;;;;5087676;27;20024;-44
2022/04/02 13:13:15;;;;;;;30.27;16.23;;;;;;;;;;5086267;28;20498;-42
2022/04/02 13:15:52;;;;;;;24.33;13.98;;;;;;;;;;5087911;27;20078;-43
2022/04/02 13:21:08;;;;;;;20.52;12.02;;;;;;;;;;5086432;28;20075;-45
2022/04/02 13:23:46;;;;;;;19.85;11.45;;;;;;;;;;5087796;28;20024;-45
2022/04/02 13:26:13;;;;;;;19.20;10.35;;;;;;;;;;5086121;28;20023;-44
2022/04/02 13:29:15;;;;;;;33.78;20.60;;;;;;;;;;5085994;28;20132;-44
2022/04/02 13:31:59;;;;;;;30.17;15.60;;;;;;;;;;5042367;28;20087;-44
2022/04/02 13:34:32;;;;;;;37.63;21.20;;;;;;;;;;5042151;28;20151;-44
2022/04/02 13:37:11;;;;;;;40.30;20.25;;;;;;;;;;5043470;28;20436;-44
2022/04/02 13:39:38;;;;;;;21.88;12.38;;;;;;;;;;5036822;28;20352;-42
2022/04/02 13:42:07;;;;;;;28.30;16.20;;;;;;;;;;5042246;28;20797;-44
2022/04/02 13:44:41;;;;;;;25.35;14.02;;;;;;;;;;5041945;28;20078;-46
2022/04/02 13:47:10;;;;;;;90.00;42.97;;;;;;;;;;5043185;28;20041;-44
2022/04/02 13:49:43;;;;;;;49.33;26.40;;;;;;;;;;5042093;28;20062;-44
2022/04/02 13:52:11;;;;;;;29.05;14.95;;;;;;;;;;5041446;28;20040;-43
2022/04/02 13:54:56;;;;;;;31.88;17.73;;;;;;;;;;5042998;28;20111;-47
2022/04/02 13:57:26;;;;;;;20.73;12.02;;;;;;;;;;5042699;28;20068;-45
2022/04/02 13:59:52;;;;;;;18.13;8.93;;;;;;;;;;5041948;28;20478;-45
2022/04/02 14:02:29;;;;;;;26.20;11.57;;;;;;;;;;5041168;28;20025;-44
2022/04/02 14:05:21;;;;;;;26.08;11.95;;;;;;;;;;5043749;28;20114;-45
2022/04/02 14:07:54;;;;;;;13.52;7.50;;;;;;;;;;5082597;28;20028;-45
2022/04/02 14:10:20;;;;;;;28.17;15.35;;;;;;;;;;5087843;28;20047;-42
2022/04/02 14:12:49;;;;;;;24.88;12.85;;;;;;;;;;5085143;28;20024;-43
2022/04/02 14:15:15;;;;;;;23.10;10.30;;;;;;;;;;5085673;27;20160;-43
2022/04/02 14:17:43;;;;;;;26.13;13.30;;;;;;;;;;5084643;27;20036;-45
2022/04/02 14:20:10;;;;;;;23.58;13.40;;;;;;;;;;5085000;27;20032;-44
2022/04/02 14:22:49;;;;;;;19.15;10.00;;;;;;;;;;5085800;28;20027;-44
2022/04/02 14:25:27;;;;;;;23.48;10.93;;;;;;;;;;5086229;28;20346;-43
2022/04/02 14:27:56;;;;;;;20.92;9.10;;;;;;;;;;5085207;28;20026;-45
2022/04/02 14:30:28;;;;;;;25.85;13.40;;;;;;;;;;5085172;27;20440;-44
2022/04/02 14:32:59;;;;;;;38.10;19.83;;;;;;;;;;5085948;28;20040;-43
2022/04/02 14:35:44;;;;;;;33.38;18.15;;;;;;;;;;5084519;27;20561;-43
2022/04/02 14:38:31;;;;;;;33.90;17.75;;;;;;;;;;5085355;28;20036;-43